createdAt,value
2023-04-20T00:00:31.073Z,10.71
2023-04-20T00:02:59.599Z,10.77
2023-04-20T00:05:27.369Z,10.79
2023-04-20T00:07:54.889Z,10.64
2023-04-20T00:10:22.406Z,10.56
2023-04-20T00:12:49.968Z,10.56
2023-04-20T00:15:17.582Z,10.53
2023-04-20T00:17:45.592Z,10.50
2023-04-20T00:20:13.210Z,10.56
2023-04-20T00:22:41.192Z,10.54
2023-04-20T00:25:09.287Z,10.58
2023-04-20T00:27:37.458Z,10.54
2023-04-20T00:30:05.483Z,10.57
2023-04-20T00:32:33.573Z,10.57
2023-04-20T00:35:01.404Z,10.63
2023-04-20T00:37:29.208Z,10.54
2023-04-20T00:39:58.002Z,10.59
2023-04-20T00:42:25.785Z,10.58
2023-04-20T00:44:53.374Z,10.53
2023-04-20T00:47:22.619Z,10.49
2023-04-20T00:49:50.810Z,10.50
2023-04-20T00:52:18.441Z,10.50
2023-04-20T00:54:46.257Z,10.51
2023-04-20T00:57:14.312Z,10.50
2023-04-20T00:59:41.855Z,10.51
2023-04-20T01:02:09.555Z,10.51
2023-04-20T01:04:37.758Z,10.57
2023-04-20T01:07:05.848Z,10.57
2023-04-20T01:09:34.043Z,10.53
2023-04-20T01:12:01.812Z,10.43
2023-04-20T01:14:29.625Z,10.45
2023-04-20T01:16:57.401Z,10.54
2023-04-20T01:19:24.995Z,10.57
2023-04-20T01:21:52.830Z,10.49
2023-04-20T01:24:20.545Z,10.48
2023-04-20T01:26:48.143Z,10.51
2023-04-20T01:29:16.015Z,10.58
2023-04-20T01:31:43.760Z,10.65
2023-04-20T01:34:11.282Z,10.60
2023-04-20T01:36:39.923Z,10.57
2023-04-20T01:39:08.909Z,10.49
2023-04-20T01:41:36.670Z,10.60
2023-04-20T01:44:04.268Z,10.58
2023-04-20T01:46:32.362Z,10.68
2023-04-20T01:48:59.952Z,10.72
2023-04-20T01:51:28.018Z,10.72
2023-04-20T01:53:55.497Z,10.78
2023-04-20T01:56:23.004Z,10.78
2023-04-20T01:58:50.538Z,10.69
2023-04-20T02:01:18.049Z,10.75
2023-04-20T02:03:46.068Z,10.66
2023-04-20T02:06:13.918Z,10.58
2023-04-20T02:08:41.373Z,10.65
2023-04-20T02:11:09.332Z,10.59
2023-04-20T02:13:36.949Z,10.69
2023-04-20T02:16:05.059Z,10.68
2023-04-20T02:18:33.145Z,10.71
2023-04-20T02:21:01.614Z,10.75
2023-04-20T02:23:29.183Z,10.84
2023-04-20T02:25:56.680Z,10.86
2023-04-20T02:28:24.169Z,10.89
2023-04-20T02:30:51.982Z,10.81
2023-04-20T02:33:21.759Z,10.78
2023-04-20T02:35:49.152Z,10.84
2023-04-20T02:38:16.766Z,10.86
2023-04-20T02:40:44.231Z,10.88
2023-04-20T02:43:11.868Z,10.89
2023-04-20T02:45:40.797Z,10.91
2023-04-20T02:48:09.778Z,10.94
2023-04-20T02:50:38.444Z,10.98
2023-04-20T02:53:16.403Z,11.01
2023-04-20T02:55:47.785Z,10.97
2023-04-20T02:58:25.327Z,10.99
2023-04-20T03:01:13.499Z,10.90
2023-04-20T03:03:42.001Z,10.92
2023-04-20T03:06:12.500Z,10.95
2023-04-20T03:08:42.207Z,10.87
2023-04-20T03:11:28.240Z,10.82
2023-04-20T03:13:57.294Z,10.73
2023-04-20T03:16:24.854Z,10.68
2023-04-20T03:18:55.512Z,10.71
2023-04-20T03:21:23.048Z,10.64
2023-04-20T03:23:50.603Z,10.64
2023-04-20T03:26:18.740Z,10.62
2023-04-20T03:28:59.379Z,10.60
2023-04-20T03:31:27.759Z,10.58
2023-04-20T03:33:57.360Z,10.58
2023-04-20T03:36:25.085Z,10.61
2023-04-20T03:38:52.657Z,10.58
2023-04-20T03:41:21.006Z,10.57
2023-04-20T03:43:48.690Z,10.53
2023-04-20T03:46:16.385Z,10.62
2023-04-20T03:48:45.283Z,10.65
2023-04-20T03:51:13.577Z,10.63
2023-04-20T03:53:41.121Z,10.62
2023-04-20T03:56:11.056Z,10.62
2023-04-20T03:58:38.704Z,10.57
2023-04-20T04:01:15.920Z,10.49
2023-04-20T04:03:48.047Z,10.57
2023-04-20T04:06:15.833Z,10.59
2023-04-20T04:08:43.435Z,10.62
2023-04-20T04:11:11.005Z,10.64
2023-04-20T04:13:39.726Z,10.64
2023-04-20T04:16:09.498Z,10.66
2023-04-20T04:18:38.508Z,10.65
2023-04-20T04:21:10.747Z,10.71
2023-04-20T04:23:42.503Z,10.71
2023-04-20T04:26:24.686Z,10.68
2023-04-20T04:28:53.526Z,10.71
2023-04-20T04:31:22.194Z,10.70
2023-04-20T04:33:50.430Z,10.62
2023-04-20T04:36:36.845Z,10.66
2023-04-20T04:39:05.759Z,10.62
2023-04-20T04:41:34.140Z,10.61
2023-04-20T04:44:13.687Z,10.56
2023-04-20T04:46:42.117Z,10.51
2023-04-20T04:49:09.825Z,10.55
2023-04-20T04:51:37.855Z,10.56
2023-04-20T04:54:05.796Z,10.53
2023-04-20T04:56:33.350Z,10.55
2023-04-20T04:59:00.921Z,10.55
2023-04-20T05:01:28.498Z,10.53
2023-04-20T05:03:56.219Z,10.51
2023-04-20T05:06:23.867Z,10.53
2023-04-20T05:08:51.488Z,10.53
2023-04-20T05:11:19.275Z,10.55
2023-04-20T05:13:48.525Z,10.53
2023-04-20T05:16:16.395Z,10.50
2023-04-20T05:18:43.948Z,10.57
2023-04-20T05:21:11.469Z,10.55
2023-04-20T05:23:38.909Z,10.50
2023-04-20T05:26:06.613Z,10.54
2023-04-20T05:28:34.810Z,10.50
2023-04-20T05:31:02.362Z,10.55
2023-04-20T05:33:29.978Z,10.52
2023-04-20T05:35:57.911Z,10.51
2023-04-20T05:38:25.960Z,10.52
2023-04-20T05:40:53.710Z,10.51
2023-04-20T05:43:21.632Z,10.51
2023-04-20T05:45:49.358Z,10.44
2023-04-20T05:48:17.056Z,10.46
2023-04-20T05:50:44.526Z,10.42
2023-04-20T05:53:11.994Z,10.48
2023-04-20T05:55:39.501Z,10.44
2023-04-20T05:58:07.057Z,10.49
2023-04-20T06:00:34.696Z,10.54
2023-04-20T06:03:03.587Z,10.52
2023-04-20T06:05:31.878Z,10.45
2023-04-20T06:07:59.585Z,10.47
2023-04-20T06:10:32.317Z,10.48
2023-04-20T06:12:59.838Z,10.42
2023-04-20T06:15:27.461Z,10.39
2023-04-20T06:17:55.089Z,10.41
2023-04-20T06:20:22.904Z,10.45
2023-04-20T06:22:50.645Z,10.48
2023-04-20T06:25:18.234Z,10.46
2023-04-20T06:27:46.697Z,10.47
2023-04-20T06:30:14.889Z,10.38
2023-04-20T06:32:42.574Z,10.35
2023-04-20T06:35:10.731Z,10.40
2023-04-20T06:37:38.840Z,10.41
2023-04-20T06:40:10.777Z,10.40
2023-04-20T06:42:38.384Z,10.39
2023-04-20T06:45:07.565Z,10.32
2023-04-20T06:47:35.203Z,10.27
2023-04-20T06:50:05.066Z,10.33
2023-04-20T06:52:32.975Z,10.29
2023-04-20T06:55:00.680Z,10.24
2023-04-20T06:57:28.216Z,10.29
2023-04-20T06:59:55.776Z,10.29
2023-04-20T07:02:23.817Z,10.29
2023-04-20T07:04:51.554Z,10.30
2023-04-20T07:07:19.229Z,10.29
2023-04-20T07:09:46.892Z,10.28
2023-04-20T07:12:15.886Z,10.31
2023-04-20T07:14:43.456Z,10.24
2023-04-20T07:17:10.920Z,10.25
2023-04-20T07:19:38.589Z,10.27
2023-04-20T07:22:06.217Z,10.26
2023-04-20T07:24:33.832Z,10.26
2023-04-20T07:27:01.593Z,10.21
2023-04-20T07:29:29.174Z,10.25
2023-04-20T07:31:56.702Z,10.31
2023-04-20T07:34:24.285Z,10.37
2023-04-20T07:36:51.786Z,10.38
2023-04-20T07:39:19.469Z,10.37
2023-04-20T07:41:48.925Z,10.51
2023-04-20T07:44:16.431Z,10.59
2023-04-20T07:46:43.936Z,10.65
2023-04-20T07:49:11.698Z,10.62
2023-04-20T07:51:39.248Z,10.73
2023-04-20T07:54:07.056Z,10.83
2023-04-20T07:56:34.542Z,10.94
2023-04-20T07:59:02.027Z,11.02
2023-04-20T08:01:29.675Z,11.14
2023-04-20T08:03:57.269Z,11.14
2023-04-20T08:06:25.695Z,11.26
2023-04-20T08:08:53.474Z,11.25
2023-04-20T08:11:21.762Z,11.17
2023-04-20T08:13:49.624Z,11.16
2023-04-20T08:16:17.141Z,11.13
2023-04-20T08:18:44.731Z,11.18
2023-04-20T08:21:12.301Z,11.27
2023-04-20T08:23:39.974Z,11.23
2023-04-20T08:26:07.470Z,11.23
2023-04-20T08:28:35.079Z,11.24
2023-04-20T08:31:02.876Z,11.37
2023-04-20T08:33:31.214Z,11.24
2023-04-20T08:35:58.706Z,11.21
2023-04-20T08:38:33.712Z,11.20
2023-04-20T08:41:02.540Z,11.24
2023-04-20T08:43:30.494Z,11.27
2023-04-20T08:46:00.159Z,11.23
2023-04-20T08:48:33.723Z,11.22
2023-04-20T08:51:02.273Z,11.09
2023-04-20T08:53:30.650Z,11.08
2023-04-20T08:55:59.013Z,11.04
2023-04-20T08:58:31.869Z,11.07
2023-04-20T09:01:01.169Z,11.02
2023-04-20T09:03:37.862Z,11.01
2023-04-20T09:06:07.120Z,10.96
2023-04-20T09:08:40.458Z,10.92
2023-04-20T09:11:21.513Z,10.71
2023-04-20T09:14:01.977Z,10.64
2023-04-20T09:16:29.838Z,10.72
2023-04-20T09:18:57.991Z,10.75
2023-04-20T09:21:28.280Z,10.68
2023-04-20T09:24:03.973Z,10.50
2023-04-20T09:26:35.934Z,10.60
2023-04-20T09:29:04.884Z,10.59
2023-04-20T09:31:36.905Z,10.62
2023-04-20T09:34:04.785Z,10.48
2023-04-20T09:36:41.047Z,10.47
2023-04-20T09:39:12.849Z,10.36
2023-04-20T09:41:42.158Z,10.35
2023-04-20T09:44:11.178Z,10.35
2023-04-20T09:46:41.322Z,10.33
2023-04-20T09:49:10.763Z,10.30
2023-04-20T09:51:41.874Z,10.31
2023-04-20T09:54:11.103Z,10.33
2023-04-20T09:56:39.588Z,10.41
2023-04-20T09:59:08.026Z,10.53
2023-04-20T10:01:36.542Z,10.55
2023-04-20T10:04:08.914Z,10.64
2023-04-20T10:06:37.973Z,10.64
2023-04-20T10:09:07.741Z,10.68
2023-04-20T10:11:49.643Z,10.58
2023-04-20T10:14:25.385Z,10.52
2023-04-20T10:17:05.619Z,10.60
2023-04-20T10:19:45.116Z,10.83
2023-04-20T10:22:25.199Z,10.96
2023-04-20T10:24:52.747Z,11.13
2023-04-20T10:27:22.562Z,11.09
2023-04-20T10:29:50.217Z,10.98
2023-04-20T10:32:29.107Z,10.89
2023-04-20T10:35:11.157Z,10.80
2023-04-20T10:37:51.770Z,10.91
2023-04-20T10:40:27.323Z,10.79
2023-04-20T10:42:55.073Z,10.76
2023-04-20T10:45:34.163Z,10.71
2023-04-20T10:48:10.523Z,10.75
2023-04-20T10:50:38.416Z,10.79
2023-04-20T10:53:06.239Z,10.77
2023-04-20T10:55:34.597Z,10.69
2023-04-20T10:58:02.176Z,10.76
2023-04-20T11:00:31.215Z,10.67
2023-04-20T11:02:58.936Z,10.73
2023-04-20T11:05:27.944Z,10.82
2023-04-20T11:07:58.271Z,10.87
2023-04-20T11:10:39.850Z,10.91
2023-04-20T11:13:18.740Z,10.94
2023-04-20T11:15:46.529Z,11.05
2023-04-20T11:18:14.068Z,11.00
2023-04-20T11:20:55.268Z,10.96
2023-04-20T11:23:25.452Z,10.88
2023-04-20T11:25:55.735Z,10.84
2023-04-20T11:28:24.121Z,10.88
2023-04-20T11:30:52.838Z,10.94
2023-04-20T11:33:30.332Z,10.93
2023-04-20T11:35:58.988Z,10.91
2023-04-20T11:38:34.156Z,10.76
2023-04-20T11:41:04.998Z,10.69
2023-04-20T11:43:32.691Z,10.74
2023-04-20T11:46:03.086Z,10.70
2023-04-20T11:48:34.095Z,10.59
2023-04-20T11:51:02.023Z,10.72
2023-04-20T11:53:30.140Z,10.76
2023-04-20T11:55:57.674Z,10.77
2023-04-20T11:58:25.660Z,10.74
2023-04-20T12:00:53.141Z,10.84
2023-04-20T12:03:20.746Z,10.80
2023-04-20T12:05:48.542Z,10.80
2023-04-20T12:08:17.447Z,10.72
2023-04-20T12:10:45.193Z,10.75
2023-04-20T12:13:13.029Z,10.73
2023-04-20T12:15:40.569Z,10.74
2023-04-20T12:18:08.331Z,10.83
2023-04-20T12:20:36.322Z,10.87
2023-04-20T12:23:04.125Z,10.78
2023-04-20T12:25:32.378Z,10.71
2023-04-20T12:28:01.430Z,10.78
2023-04-20T12:30:29.674Z,10.86
2023-04-20T12:32:57.358Z,10.80
2023-04-20T12:35:25.194Z,10.84
2023-04-20T12:37:53.029Z,10.86
2023-04-20T12:40:20.967Z,10.84
2023-04-20T12:42:48.730Z,10.73
2023-04-20T12:45:16.301Z,10.79
2023-04-20T12:47:43.913Z,10.77
2023-04-20T12:50:11.793Z,10.79
2023-04-20T12:52:40.153Z,10.82
2023-04-20T12:55:08.482Z,10.84
2023-04-20T12:57:36.354Z,10.83
2023-04-20T13:00:05.558Z,10.77
2023-04-20T13:02:34.094Z,10.86
2023-04-20T13:05:01.716Z,10.90
2023-04-20T13:07:29.372Z,10.99
2023-04-20T13:09:57.122Z,10.92
2023-04-20T13:12:25.023Z,11.20
2023-04-20T13:14:52.619Z,11.22
2023-04-20T13:17:20.118Z,11.11
2023-04-20T13:19:49.142Z,11.10
2023-04-20T13:22:18.736Z,11.09
2023-04-20T13:24:46.667Z,11.03
2023-04-20T13:27:14.450Z,10.99
2023-04-20T13:29:42.095Z,10.95
2023-04-20T13:32:10.464Z,11.03
2023-04-20T13:34:38.237Z,11.03
2023-04-20T13:37:06.000Z,11.00
2023-04-20T13:39:34.793Z,11.15
2023-04-20T13:42:03.065Z,11.14
2023-04-20T13:44:30.666Z,11.01
2023-04-20T13:46:58.247Z,11.12
2023-04-20T13:49:25.868Z,11.14
2023-04-20T13:51:53.937Z,11.15
2023-04-20T13:54:21.408Z,11.03
2023-04-20T13:56:48.962Z,11.20
2023-04-20T13:59:16.758Z,11.21
2023-04-20T14:01:44.552Z,11.17
2023-04-20T14:04:12.158Z,11.02
2023-04-20T14:06:39.784Z,11.14
2023-04-20T14:09:07.218Z,11.15
2023-04-20T14:11:35.816Z,11.00
2023-04-20T14:14:03.467Z,11.16
2023-04-20T14:16:31.450Z,11.26
2023-04-20T14:18:59.007Z,11.21
2023-04-20T14:21:28.033Z,11.11
2023-04-20T14:23:56.054Z,11.24
2023-04-20T14:26:23.695Z,11.36
2023-04-20T14:28:52.675Z,11.35
2023-04-20T14:31:20.538Z,11.28
2023-04-20T14:33:48.030Z,11.29
2023-04-20T14:36:15.533Z,11.25
2023-04-20T14:38:43.114Z,11.41
2023-04-20T14:41:10.772Z,11.46
2023-04-20T14:43:38.343Z,11.57
2023-04-20T14:46:06.442Z,11.64
2023-04-20T14:48:35.724Z,11.61
2023-04-20T14:51:03.423Z,11.57
2023-04-20T14:53:32.027Z,11.60
2023-04-20T14:56:00.549Z,11.62
2023-04-20T14:58:28.064Z,11.64
2023-04-20T15:00:55.634Z,11.64
2023-04-20T15:03:23.410Z,11.62
2023-04-20T15:05:51.326Z,11.57
2023-04-20T15:08:18.998Z,11.52
2023-04-20T15:10:46.835Z,11.51
2023-04-20T15:13:14.605Z,11.46
2023-04-20T15:18:15.955Z,11.46
2023-04-20T15:20:43.528Z,11.50
2023-04-20T15:23:11.307Z,11.38
2023-04-20T15:25:39.071Z,11.34
2023-04-20T15:28:06.976Z,11.31
2023-04-20T15:30:34.723Z,11.27
2023-04-20T15:33:04.590Z,11.20
2023-04-20T15:35:33.612Z,11.19
2023-04-20T15:38:01.377Z,11.19
2023-04-20T15:40:29.095Z,11.13
2023-04-20T15:42:56.804Z,11.08
2023-04-20T15:45:24.599Z,11.17
2023-04-20T15:47:52.361Z,11.09
2023-04-20T15:50:19.951Z,11.07
2023-04-20T15:52:49.902Z,11.13
2023-04-20T15:55:17.563Z,11.15
2023-04-20T15:57:45.233Z,11.17
2023-04-20T16:00:13.694Z,11.14
2023-04-20T16:02:41.731Z,11.18
2023-04-20T16:05:09.631Z,11.16
2023-04-20T16:07:38.260Z,11.20
2023-04-20T16:10:07.271Z,11.21
2023-04-20T16:12:35.141Z,11.17
2023-04-20T16:15:03.853Z,11.09
2023-04-20T16:17:31.547Z,11.09
2023-04-20T16:19:59.228Z,11.14
2023-04-20T16:22:26.885Z,11.11
2023-04-20T16:24:54.455Z,11.17
2023-04-20T16:27:21.991Z,11.12
2023-04-20T16:29:49.494Z,11.12
2023-04-20T16:32:16.909Z,11.10
2023-04-20T16:34:44.441Z,11.08
2023-04-20T16:37:11.906Z,11.08
2023-04-20T16:39:39.443Z,11.03
2023-04-20T16:42:07.000Z,10.97
2023-04-20T16:44:34.542Z,10.96
2023-04-20T16:47:02.075Z,10.86
2023-04-20T16:49:29.921Z,10.83
2023-04-20T16:51:57.731Z,10.85
2023-04-20T16:54:25.331Z,10.83
2023-04-20T16:56:52.915Z,10.89
2023-04-20T16:59:21.877Z,10.85
2023-04-20T17:01:50.178Z,10.75
2023-04-20T17:04:18.515Z,10.74
2023-04-20T17:06:49.539Z,10.62
2023-04-20T17:09:17.491Z,10.51
2023-04-20T17:11:45.245Z,10.46
2023-04-20T17:14:12.732Z,10.44
2023-04-20T17:16:43.022Z,10.32
2023-04-20T17:19:10.837Z,10.31
2023-04-20T17:21:40.476Z,10.34
2023-04-20T17:24:08.026Z,10.36
2023-04-20T17:26:35.981Z,10.30
2023-04-20T17:29:04.776Z,10.32
2023-04-20T17:31:33.536Z,10.29
2023-04-20T17:34:01.108Z,10.27
2023-04-20T17:36:28.668Z,10.27
2023-04-20T17:38:56.279Z,10.22
2023-04-20T17:41:23.747Z,10.11
2023-04-20T17:43:51.764Z,10.09
2023-04-20T17:46:19.993Z,10.00
2023-04-20T17:48:47.634Z,10.03
2023-04-20T17:51:15.276Z,9.98
2023-04-20T17:53:42.806Z,9.92
2023-04-20T17:56:10.965Z,9.95
2023-04-20T17:58:38.587Z,9.95
2023-04-20T18:01:06.408Z,9.99
2023-04-20T18:03:34.136Z,10.03
2023-04-20T18:06:02.640Z,9.92
2023-04-20T18:08:30.291Z,9.87
2023-04-20T18:10:58.006Z,9.93
2023-04-20T18:13:25.814Z,9.92
2023-04-20T18:15:53.454Z,9.95
2023-04-20T18:18:21.753Z,9.88
2023-04-20T18:20:49.333Z,9.75
2023-04-20T18:23:17.451Z,9.70
2023-04-20T18:25:45.024Z,9.69
2023-04-20T18:28:12.563Z,9.60
2023-04-20T18:30:40.082Z,9.60
2023-04-20T18:33:07.984Z,9.58
2023-04-20T18:35:35.731Z,9.57
2023-04-20T18:38:05.079Z,9.51
2023-04-20T18:40:32.574Z,9.47
2023-04-20T18:43:00.251Z,9.46
2023-04-20T18:45:29.009Z,9.54
2023-04-20T18:47:58.094Z,9.56
2023-04-20T18:50:25.655Z,9.53
2023-04-20T18:52:53.146Z,9.51
2023-04-20T18:55:20.699Z,9.41
2023-04-20T18:57:48.249Z,9.42
2023-04-20T19:00:16.494Z,9.39
2023-04-20T19:02:44.311Z,9.38
2023-04-20T19:05:13.173Z,9.39
2023-04-20T19:07:40.882Z,9.40
2023-04-20T19:10:08.878Z,9.45
2023-04-20T19:12:37.999Z,9.42
2023-04-20T19:15:06.654Z,9.34
2023-04-20T19:17:35.391Z,9.38
2023-04-20T19:20:04.218Z,9.41
2023-04-20T19:22:31.860Z,9.34
2023-04-20T19:24:59.334Z,9.33
2023-04-20T19:27:26.986Z,9.35
2023-04-20T19:29:54.574Z,9.39
2023-04-20T19:32:22.156Z,9.39
2023-04-20T19:34:49.889Z,9.41
2023-04-20T19:37:17.435Z,9.45
2023-04-20T19:39:44.890Z,9.52
2023-04-20T19:42:12.499Z,9.50
2023-04-20T19:44:39.983Z,9.47
2023-04-20T19:47:07.489Z,9.45
2023-04-20T19:49:35.629Z,9.46
2023-04-20T19:52:03.477Z,9.46
2023-04-20T19:54:31.061Z,9.44
2023-04-20T19:56:58.592Z,9.45
2023-04-20T19:59:26.811Z,9.45
2023-04-20T20:01:54.385Z,9.45
2023-04-20T20:04:22.149Z,9.53
2023-04-20T20:06:50.783Z,9.56
2023-04-20T20:09:20.830Z,9.64
2023-04-20T20:11:50.343Z,9.61
2023-04-20T20:14:17.910Z,9.66
2023-04-20T20:16:45.537Z,9.60
2023-04-20T20:19:13.958Z,9.61
2023-04-20T20:21:41.497Z,9.57
2023-04-20T20:24:09.193Z,9.60
2023-04-20T20:26:36.944Z,9.58
2023-04-20T20:29:04.634Z,9.51
2023-04-20T20:31:32.802Z,9.55
2023-04-20T20:34:00.638Z,9.61
2023-04-20T20:36:29.300Z,9.56
2023-04-20T20:38:57.375Z,9.60
2023-04-20T20:41:24.866Z,9.64
2023-04-20T20:43:53.007Z,9.72
2023-04-20T20:46:20.841Z,9.80
2023-04-20T20:48:48.584Z,9.71
2023-04-20T20:51:16.338Z,9.62
2023-04-20T20:53:44.261Z,9.62
2023-04-20T20:56:11.801Z,9.66
2023-04-20T20:58:39.262Z,9.73
2023-04-20T21:01:06.995Z,9.75
2023-04-20T21:03:35.421Z,9.69
2023-04-20T21:06:03.218Z,9.72
2023-04-20T21:08:31.294Z,9.61
2023-04-20T21:10:58.770Z,9.69
2023-04-20T21:13:26.549Z,9.72
2023-04-20T21:15:54.144Z,9.72
2023-04-20T21:18:21.859Z,9.65
2023-04-20T21:20:49.391Z,9.65
2023-04-20T21:23:16.967Z,9.67
2023-04-20T21:25:44.484Z,9.70
2023-04-20T21:28:11.993Z,9.69
2023-04-20T21:30:39.678Z,9.68
2023-04-20T21:33:07.265Z,9.72
2023-04-20T21:35:34.845Z,9.63
2023-04-20T21:38:04.737Z,9.58
2023-04-20T21:40:34.305Z,9.51
2023-04-20T21:43:01.861Z,9.54
2023-04-20T21:45:29.360Z,9.55
2023-04-20T21:47:56.871Z,9.60
2023-04-20T21:50:27.108Z,9.56
2023-04-20T21:52:55.116Z,9.45
2023-04-20T21:55:22.680Z,9.41
2023-04-20T21:57:50.198Z,9.34
2023-04-20T22:00:18.252Z,9.32
2023-04-20T22:02:46.589Z,9.36
2023-04-20T22:05:14.190Z,9.42
2023-04-20T22:07:41.900Z,9.43
2023-04-20T22:10:09.860Z,9.43
2023-04-20T22:12:40.873Z,9.44
2023-04-20T22:15:13.685Z,9.44
2023-04-20T22:17:45.530Z,9.46
2023-04-20T22:20:14.472Z,9.55
2023-04-20T22:22:42.222Z,9.52
2023-04-20T22:25:10.172Z,9.53
2023-04-20T22:27:38.559Z,9.56
2023-04-20T22:30:08.741Z,9.52
2023-04-20T22:32:37.685Z,9.56
2023-04-20T22:35:05.904Z,9.59
2023-04-20T22:37:34.955Z,9.57
2023-04-20T22:40:04.098Z,9.57
2023-04-20T22:42:32.179Z,9.63
2023-04-20T22:44:59.766Z,9.61
2023-04-20T22:47:27.284Z,9.56
2023-04-20T22:49:54.879Z,9.45
2023-04-20T22:52:22.822Z,9.49
2023-04-20T22:54:50.332Z,9.47
2023-04-20T22:57:18.273Z,9.47
2023-04-20T22:59:45.829Z,9.49
2023-04-20T23:02:13.410Z,9.41
2023-04-20T23:04:41.322Z,9.35
2023-04-20T23:07:08.901Z,9.38
2023-04-20T23:09:42.939Z,9.43
2023-04-20T23:12:11.829Z,9.45
2023-04-20T23:14:42.538Z,9.40
2023-04-20T23:17:10.727Z,9.38
2023-04-20T23:19:38.714Z,9.31
2023-04-20T23:22:09.126Z,9.36
2023-04-20T23:24:37.412Z,9.31
2023-04-20T23:27:05.157Z,9.34
2023-04-20T23:29:33.150Z,9.34
2023-04-20T23:32:01.427Z,9.42
2023-04-20T23:34:29.374Z,9.44
2023-04-20T23:36:56.852Z,9.35
2023-04-20T23:39:24.377Z,9.32
2023-04-20T23:41:51.869Z,9.40
2023-04-20T23:44:19.434Z,9.39
2023-04-20T23:46:46.971Z,9.41
2023-04-20T23:49:14.400Z,9.43
2023-04-20T23:51:42.263Z,9.42
2023-04-20T23:54:09.810Z,9.43
2023-04-20T23:56:37.323Z,9.43
2023-04-20T23:59:04.833Z,9.49
